Time;durP1;ratioP1;P1;durP2;ratioP2;P2;SDS_P1;SDS_P2;PMS_P1;PMS_P2;Temp;Humidity;BMP_temperature;BMP_pressure;BME280_temperature;BME280_humidity;BME280_pressure;Samples;Min_cycle;Max_cycle;Signal;HPM_P1;HPM_P2
2022/07/27 00:01:19;;;;;;;;;;;16.40;94.60;;;;;;5061884;28;20322;-71
2022/07/27 00:03:46;;;;;;;;;;;16.40;94.40;;;;;;5066282;28;19916;-74
2022/07/27 00:06:11;;;;;;;;;;;16.30;94.30;;;;;;5065001;28;20184;-72
2022/07/27 00:08:37;;;;;;;;;;;16.30;94.50;;;;;;5066406;28;20326;-73
2022/07/27 00:11:03;;;;;;;;;;;16.30;94.60;;;;;;5064718;28;19924;-72
2022/07/27 00:13:28;;;;;;;;;;;16.30;94.70;;;;;;5066935;28;19959;-71
2022/07/27 00:15:54;;;;;;;;;;;16.30;94.70;;;;;;5064525;28;19916;-72
2022/07/27 00:18:19;;;;;;;;;;;16.30;94.80;;;;;;5066900;28;19935;-72
2022/07/27 00:20:45;;;;;;;;;;;16.20;94.80;;;;;;5060231;28;19928;-72
2022/07/27 00:23:10;;;;;;;;;;;16.20;95.20;;;;;;5066206;28;19917;-71
2022/07/27 00:25:36;;;;;;;;;;;16.10;95.30;;;;;;5064606;28;19921;-72
2022/07/27 00:28:01;;;;;;;;;;;16.00;95.80;;;;;;5066675;28;19974;-72
2022/07/27 00:30:27;;;;;;;;;;;15.90;95.40;;;;;;5064723;28;20200;-72
2022/07/27 00:32:53;;;;;;;;;;;15.80;95.60;;;;;;5066556;28;20379;-72
2022/07/27 00:35:18;;;;;;;;;;;15.80;96.10;;;;;;5063964;28;20015;-72
2022/07/27 00:37:43;;;;;;;;;;;15.80;96.50;;;;;;5066145;28;19923;-72
2022/07/27 00:40:09;;;;;;;;;;;15.70;96.40;;;;;;5054498;28;19920;-70
2022/07/27 00:42:35;;;;;;;;;;;15.60;96.90;;;;;;5065424;28;19916;-71
2022/07/27 00:45:01;;;;;;;;;;;15.60;97.20;;;;;;5064672;28;19912;-71
2022/07/27 00:47:26;;;;;;;;;;;15.60;97.10;;;;;;5066415;28;20422;-72
2022/07/27 00:49:52;;;;;;;;;;;15.50;97.90;;;;;;5064734;28;20371;-72
2022/07/27 00:52:17;;;;;;;;;;;15.40;98.20;;;;;;5064315;28;20382;-71
2022/07/27 00:54:43;;;;;;;;;;;15.30;98.30;;;;;;5063850;28;20009;-71
2022/07/27 00:57:09;;;;;;;;;;;15.30;98.70;;;;;;5065729;28;20272;-71
2022/07/27 00:59:35;;;;;;;;;;;15.20;98.90;;;;;;5064038;28;19916;-71
2022/07/27 01:02:01;;;;;;;;;;;15.20;98.80;;;;;;5063993;28;20306;-71
2022/07/27 01:04:26;;;;;;;;;;;15.10;99.00;;;;;;5064040;28;19966;-71
2022/07/27 01:06:52;;;;;;;;;;;15.10;99.50;;;;;;5066962;28;20014;-71
2022/07/27 01:12:02;;;;;;;;;;;15.10;99.70;;;;;;5054979;28;20603;-71
2022/07/27 01:14:27;;;;;;;;;;;15.10;99.90;;;;;;5065085;28;19916;-71
2022/07/27 01:16:53;;;;;;;;;;;15.00;99.90;;;;;;5066262;28;19943;-71
2022/07/27 01:19:18;;;;;;;;;;;14.90;99.90;;;;;;5064250;28;19912;-71
2022/07/27 01:21:44;;;;;;;;;;;14.90;99.90;;;;;;5065970;28;19920;-71
2022/07/27 01:24:09;;;;;;;;;;;14.90;99.90;;;;;;5063575;28;19924;-71
2022/07/27 01:26:36;;;;;;;;;;;14.80;99.90;;;;;;5066160;28;19913;-72
2022/07/27 01:29:01;;;;;;;;;;;14.80;99.90;;;;;;5066211;28;19912;-71
2022/07/27 01:31:27;;;;;;;;;;;14.80;99.90;;;;;;5061915;28;19916;-72
2022/07/27 01:33:52;;;;;;;;;;;14.80;99.90;;;;;;5065353;28;19916;-72
2022/07/27 01:36:18;;;;;;;;;;;14.70;99.90;;;;;;5054978;28;20132;-71
2022/07/27 01:38:44;;;;;;;;;;;14.70;99.90;;;;;;5065182;28;20296;-71
2022/07/27 01:41:09;;;;;;;;;;;14.60;99.90;;;;;;5056092;28;19974;-72
2022/07/27 01:43:35;;;;;;;;;;;14.50;99.90;;;;;;5064953;28;19916;-70
2022/07/27 01:46:00;;;;;;;;;;;14.50;99.90;;;;;;5054795;28;20493;-70
2022/07/27 01:48:26;;;;;;;;;;;14.60;99.90;;;;;;5064824;28;19971;-70
2022/07/27 01:50:51;;;;;;;;;;;14.40;99.90;;;;;;5062454;28;19963;-71
2022/07/27 01:53:17;;;;;;;;;;;14.30;99.90;;;;;;5065012;28;19926;-70
2022/07/27 01:55:43;;;;;;;;;;;14.30;99.90;;;;;;5063830;28;19913;-70
2022/07/27 01:58:08;;;;;;;;;;;14.20;99.90;;;;;;5065347;28;20341;-70
2022/07/27 02:00:34;;;;;;;;;;;14.20;99.90;;;;;;5058006;28;20045;-70
2022/07/27 02:03:00;;;;;;;;;;;14.10;99.90;;;;;;5065229;28;19930;-69
2022/07/27 02:05:25;;;;;;;;;;;14.10;99.90;;;;;;5063480;28;20003;-70
2022/07/27 02:07:51;;;;;;;;;;;14.00;99.90;;;;;;5065444;28;19917;-70
2022/07/27 02:10:16;;;;;;;;;;;14.00;99.90;;;;;;5063193;28;20121;-69
2022/07/27 02:12:42;;;;;;;;;;;14.00;99.90;;;;;;5065324;28;20318;-69
2022/07/27 02:15:07;;;;;;;;;;;13.90;99.90;;;;;;5056513;28;19916;-70
2022/07/27 02:17:33;;;;;;;;;;;13.90;99.90;;;;;;5057762;28;20308;-71
2022/07/27 02:19:58;;;;;;;;;;;13.90;99.90;;;;;;5062478;28;19935;-69
2022/07/27 02:22:24;;;;;;;;;;;13.90;99.90;;;;;;5064890;28;19913;-70
2022/07/27 02:24:49;;;;;;;;;;;13.80;99.90;;;;;;5063004;28;19923;-71
2022/07/27 02:27:15;;;;;;;;;;;13.80;99.90;;;;;;5052710;28;19974;-71
2022/07/27 02:29:40;;;;;;;;;;;13.80;99.90;;;;;;5062392;28;19917;-72
2022/07/27 02:32:06;;;;;;;;;;;13.70;99.90;;;;;;5064335;28;19920;-70
2022/07/27 02:34:31;;;;;;;;;;;13.60;99.90;;;;;;5064090;28;19916;-66
2022/07/27 02:36:56;;;;;;;;;;;13.60;99.90;;;;;;5063403;28;19912;-71
2022/07/27 02:39:22;;;;;;;;;;;13.70;99.90;;;;;;5061764;28;19919;-71
2022/07/27 02:41:48;;;;;;;;;;;13.70;99.90;;;;;;5064725;28;19917;-71
2022/07/27 02:44:14;;;;;;;;;;;13.60;99.90;;;;;;5065280;28;20308;-70
2022/07/27 02:46:39;;;;;;;;;;;13.60;99.90;;;;;;5063567;28;20347;-70
2022/07/27 02:49:05;;;;;;;;;;;13.40;99.90;;;;;;5065087;28;19917;-70
2022/07/27 02:51:30;;;;;;;;;;;13.50;99.90;;;;;;5063214;28;19917;-70
2022/07/27 02:53:56;;;;;;;;;;;13.40;99.90;;;;;;5065028;28;19916;-70
2022/07/27 02:56:21;;;;;;;;;;;13.40;99.90;;;;;;5063161;28;19924;-71
2022/07/27 02:58:47;;;;;;;;;;;13.40;99.90;;;;;;5064977;28;20011;-71
2022/07/27 03:01:13;;;;;;;;;;;13.50;99.90;;;;;;5062811;28;19920;-70
2022/07/27 03:03:38;;;;;;;;;;;13.40;99.90;;;;;;5064181;28;19912;-71
2022/07/27 03:06:04;;;;;;;;;;;13.30;99.90;;;;;;5059986;28;19928;-70
2022/07/27 03:08:30;;;;;;;;;;;13.30;99.90;;;;;;5064070;28;20399;-71
2022/07/27 03:10:55;;;;;;;;;;;13.40;99.90;;;;;;5062986;28;20038;-70
2022/07/27 03:13:20;;;;;;;;;;;13.40;99.90;;;;;;5064910;28;19920;-71
2022/07/27 03:15:46;;;;;;;;;;;13.40;99.90;;;;;;5062621;28;20160;-71
2022/07/27 03:18:11;;;;;;;;;;;13.40;99.90;;;;;;5064959;28;19953;-70
2022/07/27 03:20:37;;;;;;;;;;;13.50;99.90;;;;;;5000892;28;19938;-70
2022/07/27 03:23:02;;;;;;;;;;;13.50;99.90;;;;;;5064568;28;20567;-70
2022/07/27 03:25:27;;;;;;;;;;;13.50;99.90;;;;;;5054807;28;19924;-70
2022/07/27 03:27:53;;;;;;;;;;;13.50;99.90;;;;;;5063871;28;19917;-70
2022/07/27 03:30:18;;;;;;;;;;;13.50;99.90;;;;;;5062828;28;20415;-71
2022/07/27 03:32:44;;;;;;;;;;;13.40;99.90;;;;;;5064386;28;19916;-70
2022/07/27 03:35:09;;;;;;;;;;;13.40;99.90;;;;;;5064741;28;19959;-70
2022/07/27 03:37:34;;;;;;;;;;;13.50;99.90;;;;;;5052505;28;19935;-70
2022/07/27 03:40:00;;;;;;;;;;;13.60;99.90;;;;;;5062125;28;19916;-70
2022/07/27 03:42:25;;;;;;;;;;;13.60;99.90;;;;;;5063102;28;19925;-71
2022/07/27 03:44:51;;;;;;;;;;;13.70;99.90;;;;;;5066425;28;19976;-69
2022/07/27 03:47:16;;;;;;;;;;;13.80;99.90;;;;;;5059046;28;19923;-70
2022/07/27 03:49:42;;;;;;;;;;;13.80;99.90;;;;;;5065399;28;19942;-69
2022/07/27 03:52:07;;;;;;;;;;;13.70;99.90;;;;;;5068412;28;19916;-73
2022/07/27 03:54:33;;;;;;;;;;;13.40;99.90;;;;;;5068259;28;19978;-70
2022/07/27 03:56:58;;;;;;;;;;;13.30;99.90;;;;;;5065780;28;20421;-70
2022/07/27 03:59:23;;;;;;;;;;;13.20;99.90;;;;;;5068292;28;19966;-70
2022/07/27 04:01:49;;;;;;;;;;;13.40;99.90;;;;;;5065827;28;19916;-70
2022/07/27 04:04:14;;;;;;;;;;;13.50;99.90;;;;;;5067585;28;19917;-70
2022/07/27 04:06:40;;;;;;;;;;;13.60;99.90;;;;;;5061821;28;19948;-71
2022/07/27 04:09:05;;;;;;;;;;;13.60;99.90;;;;;;5066392;28;19912;-71
2022/07/27 04:11:30;;;;;;;;;;;13.50;99.90;;;;;;5058799;28;19913;-71
2022/07/27 04:13:56;;;;;;;;;;;13.30;99.90;;;;;;5067221;28;19924;-71
2022/07/27 04:16:25;;;;;;;;;;;13.10;99.90;;;;;;4992131;28;19916;-70
2022/07/27 04:18:52;;;;;;;;;;;13.10;99.90;;;;;;5067269;28;19916;-71
2022/07/27 04:21:17;;;;;;;;;;;13.00;99.90;;;;;;5059275;28;19927;-71
2022/07/27 04:23:43;;;;;;;;;;;13.00;99.90;;;;;;5066503;28;20019;-71
2022/07/27 04:26:08;;;;;;;;;;;13.10;99.90;;;;;;5065782;28;19923;-71
2022/07/27 04:28:33;;;;;;;;;;;13.00;99.90;;;;;;5067346;28;19975;-70
2022/07/27 04:30:59;;;;;;;;;;;13.20;99.90;;;;;;5065496;28;19916;-70
2022/07/27 04:33:24;;;;;;;;;;;13.20;99.90;;;;;;5067188;28;20267;-71
2022/07/27 04:35:50;;;;;;;;;;;13.20;99.90;;;;;;5065366;28;19966;-70
2022/07/27 04:38:15;;;;;;;;;;;13.10;99.90;;;;;;5067380;28;20363;-71
2022/07/27 04:40:40;;;;;;;;;;;13.10;99.90;;;;;;5065406;28;19958;-70
2022/07/27 04:43:06;;;;;;;;;;;13.30;99.90;;;;;;5067073;28;19916;-70
2022/07/27 04:45:31;;;;;;;;;;;13.10;99.90;;;;;;5065222;28;19912;-70
2022/07/27 04:47:57;;;;;;;;;;;13.20;99.90;;;;;;5067367;28;19962;-70
2022/07/27 04:50:22;;;;;;;;;;;13.20;99.90;;;;;;5065237;28;19916;-71
2022/07/27 04:52:48;;;;;;;;;;;13.20;99.90;;;;;;5053700;28;19923;-71
2022/07/27 04:55:13;;;;;;;;;;;13.40;99.90;;;;;;5064898;28;19917;-71
2022/07/27 04:57:40;;;;;;;;;;;13.50;99.90;;;;;;5066927;28;20569;-70
2022/07/27 05:00:07;;;;;;;;;;;13.60;99.90;;;;;;5064917;28;19920;-70
2022/07/27 05:02:32;;;;;;;;;;;13.60;99.90;;;;;;5067089;28;19908;-70
2022/07/27 05:05:00;;;;;;;;;;;13.70;99.90;;;;;;5065148;28;19917;-71
2022/07/27 05:07:26;;;;;;;;;;;13.80;99.90;;;;;;5067170;28;19963;-71
2022/07/27 05:09:51;;;;;;;;;;;13.80;99.90;;;;;;5064805;28;19912;-71
2022/07/27 05:12:17;;;;;;;;;;;14.00;99.90;;;;;;5061819;28;20427;-71
2022/07/27 05:14:42;;;;;;;;;;;14.10;99.90;;;;;;5065679;28;19959;-70
2022/07/27 05:17:07;;;;;;;;;;;14.30;99.90;;;;;;5063235;28;19921;-70
2022/07/27 05:19:33;;;;;;;;;;;14.20;99.90;;;;;;5066328;28;19916;-71
2022/07/27 05:21:59;;;;;;;;;;;14.10;99.90;;;;;;5057775;28;19917;-71
2022/07/27 05:24:25;;;;;;;;;;;14.10;99.90;;;;;;5065779;28;19916;-70
2022/07/27 05:26:51;;;;;;;;;;;14.00;99.90;;;;;;5064380;28;19923;-71
2022/07/27 05:29:16;;;;;;;;;;;13.90;99.90;;;;;;5066268;28;19920;-70
2022/07/27 05:31:41;;;;;;;;;;;13.90;99.90;;;;;;5063749;28;20367;-70
2022/07/27 05:34:07;;;;;;;;;;;14.00;99.90;;;;;;5065603;28;19913;-70
2022/07/27 05:36:32;;;;;;;;;;;14.00;99.90;;;;;;5064255;28;19958;-68
2022/07/27 05:38:58;;;;;;;;;;;14.20;99.90;;;;;;5066121;28;19916;-69
2022/07/27 05:41:24;;;;;;;;;;;14.30;99.90;;;;;;5062459;28;20028;-70
2022/07/27 05:43:49;;;;;;;;;;;14.40;99.90;;;;;;5065390;28;20373;-71
2022/07/27 05:46:14;;;;;;;;;;;14.40;99.90;;;;;;5063866;28;20359;-71
2022/07/27 05:48:40;;;;;;;;;;;14.40;99.90;;;;;;5065978;28;19912;-71
2022/07/27 05:51:05;;;;;;;;;;;14.60;99.90;;;;;;5054724;28;19916;-70
2022/07/27 05:53:31;;;;;;;;;;;14.50;99.90;;;;;;5065150;28;20616;-71
2022/07/27 05:55:56;;;;;;;;;;;14.60;99.90;;;;;;5063526;28;19924;-70
2022/07/27 05:58:22;;;;;;;;;;;14.70;99.90;;;;;;5064881;28;19924;-71
2022/07/27 06:00:47;;;;;;;;;;;14.80;99.90;;;;;;5063648;28;20371;-72
2022/07/27 06:03:12;;;;;;;;;;;14.90;99.90;;;;;;5053363;28;19909;-72
2022/07/27 06:05:38;;;;;;;;;;;14.80;99.90;;;;;;5062755;28;19917;-72
2022/07/27 06:08:08;;;;;;;;;;;14.80;99.90;;;;;;5054401;28;19913;-72
2022/07/27 06:10:34;;;;;;;;;;;14.90;99.90;;;;;;5063304;28;19912;-72
2022/07/27 06:13:01;;;;;;;;;;;15.00;99.90;;;;;;5065709;28;19916;-72
2022/07/27 06:15:26;;;;;;;;;;;15.10;99.90;;;;;;5063594;28;19995;-72
2022/07/27 06:17:52;;;;;;;;;;;15.30;99.90;;;;;;5065063;28;20660;-72
2022/07/27 06:20:19;;;;;;;;;;;15.20;99.90;;;;;;5063042;28;19916;-71
2022/07/27 06:22:48;;;;;;;;;;;15.20;99.90;;;;;;5065476;28;20259;-70
2022/07/27 06:25:14;;;;;;;;;;;15.60;99.90;;;;;;5063373;28;20451;-71
2022/07/27 06:27:40;;;;;;;;;;;15.80;99.90;;;;;;5052865;28;19995;-70
2022/07/27 06:30:06;;;;;;;;;;;15.90;99.90;;;;;;5064929;28;20657;-70
2022/07/27 06:32:32;;;;;;;;;;;15.80;99.90;;;;;;5056982;28;19920;-70
2022/07/27 06:34:59;;;;;;;;;;;15.70;99.90;;;;;;5064711;28;20371;-71
2022/07/27 06:37:26;;;;;;;;;;;15.80;99.90;;;;;;5053083;28;19913;-71
2022/07/27 06:39:51;;;;;;;;;;;16.20;99.90;;;;;;5064812;28;19916;-70
2022/07/27 06:42:17;;;;;;;;;;;16.20;99.90;;;;;;5057981;28;19973;-70
2022/07/27 06:44:42;;;;;;;;;;;16.10;99.90;;;;;;5064339;28;19923;-70
2022/07/27 06:47:08;;;;;;;;;;;16.10;99.90;;;;;;5063220;28;20386;-71
2022/07/27 06:49:33;;;;;;;;;;;16.00;99.90;;;;;;5064507;28;19923;-71
2022/07/27 06:51:59;;;;;;;;;;;16.00;99.90;;;;;;5055148;28;20001;-70
2022/07/27 06:54:24;;;;;;;;;;;15.80;99.90;;;;;;5064521;28;20343;-71
2022/07/27 06:56:49;;;;;;;;;;;15.80;99.90;;;;;;5061384;28;20479;-71
2022/07/27 06:59:15;;;;;;;;;;;16.00;99.90;;;;;;5064945;28;19912;-71
2022/07/27 07:01:40;;;;;;;;;;;16.20;99.90;;;;;;5063314;28;19916;-70
2022/07/27 07:04:06;;;;;;;;;;;16.40;99.90;;;;;;5064939;28;19926;-70
2022/07/27 07:06:31;;;;;;;;;;;16.60;99.90;;;;;;5062996;28;19916;-70
2022/07/27 07:08:57;;;;;;;;;;;16.50;99.90;;;;;;5065457;28;19916;-70
2022/07/27 07:11:22;;;;;;;;;;;16.80;99.90;;;;;;5067204;28;19970;-71
2022/07/27 07:13:47;;;;;;;;;;;16.70;99.90;;;;;;5069168;28;19966;-71
2022/07/27 07:16:13;;;;;;;;;;;16.50;99.90;;;;;;5059606;28;20370;-71
2022/07/27 07:18:39;;;;;;;;;;;16.60;99.90;;;;;;5069397;28;20325;-69
2022/07/27 07:21:04;;;;;;;;;;;16.80;99.90;;;;;;5067425;28;19916;-70
2022/07/27 07:23:30;;;;;;;;;;;16.90;99.90;;;;;;5062774;28;19916;-70
2022/07/27 07:25:55;;;;;;;;;;;17.10;99.90;;;;;;5066624;28;19913;-69
2022/07/27 07:28:21;;;;;;;;;;;17.20;99.90;;;;;;5058198;28;20442;-71
2022/07/27 07:30:49;;;;;;;;;;;16.90;99.90;;;;;;5067607;28;19916;-71
2022/07/27 07:33:15;;;;;;;;;;;16.90;99.90;;;;;;5065533;28;19924;-71
2022/07/27 07:35:41;;;;;;;;;;;17.20;99.90;;;;;;5065792;28;19921;-72
2022/07/27 07:38:06;;;;;;;;;;;17.70;99.50;;;;;;5064960;28;20299;-71
2022/07/27 07:40:32;;;;;;;;;;;17.50;99.00;;;;;;5065899;28;19995;-69
2022/07/27 07:43:01;;;;;;;;;;;17.40;98.90;;;;;;5068095;28;19958;-70
2022/07/27 07:45:27;;;;;;;;;;;17.40;99.10;;;;;;5066571;28;19916;-71
2022/07/27 07:47:53;;;;;;;;;;;17.30;98.10;;;;;;5068433;28;20015;-71
2022/07/27 07:50:19;;;;;;;;;;;17.20;98.50;;;;;;5067419;28;20083;-71
2022/07/27 07:52:46;;;;;;;;;;;17.20;98.20;;;;;;5066131;28;19920;-70
2022/07/27 07:55:11;;;;;;;;;;;17.40;98.40;;;;;;5067826;28;19928;-70
2022/07/27 07:57:37;;;;;;;;;;;17.70;97.20;;;;;;5065892;28;20390;-70
2022/07/27 08:00:04;;;;;;;;;;;17.40;98.20;;;;;;5068162;28;19916;-69
2022/07/27 08:02:29;;;;;;;;;;;17.40;98.20;;;;;;5058403;28;19917;-70
2022/07/27 08:04:55;;;;;;;;;;;17.70;97.30;;;;;;5066824;28;19924;-70
2022/07/27 08:07:20;;;;;;;;;;;17.80;96.60;;;;;;5065911;28;19913;-70
2022/07/27 08:09:46;;;;;;;;;;;17.20;96.20;;;;;;5068109;28;20370;-70
2022/07/27 08:12:11;;;;;;;;;;;16.90;97.20;;;;;;5065839;28;19917;-70
2022/07/27 08:14:36;;;;;;;;;;;16.90;97.10;;;;;;5067455;28;20362;-70
2022/07/27 08:17:02;;;;;;;;;;;17.10;97.20;;;;;;5059802;28;19917;-70
2022/07/27 08:19:27;;;;;;;;;;;17.40;96.80;;;;;;5066702;28;19923;-70
2022/07/27 08:21:53;;;;;;;;;;;17.00;96.80;;;;;;5063549;28;19916;-70
2022/07/27 08:24:18;;;;;;;;;;;17.10;98.10;;;;;;5066681;28;19916;-71
2022/07/27 08:26:43;;;;;;;;;;;17.20;98.10;;;;;;5065537;28;19932;-71
2022/07/27 08:29:09;;;;;;;;;;;17.30;96.70;;;;;;5067344;28;19916;-72
2022/07/27 08:31:35;;;;;;;;;;;17.30;97.20;;;;;;5064976;28;19916;-72
2022/07/27 08:34:00;;;;;;;;;;;17.50;97.20;;;;;;5067155;28;19965;-72
2022/07/27 08:36:27;;;;;;;;;;;17.50;97.30;;;;;;5065319;28;20070;-72
2022/07/27 08:38:52;;;;;;;;;;;17.90;96.40;;;;;;5055084;28;19939;-71
2022/07/27 08:41:18;;;;;;;;;;;18.20;95.70;;;;;;5065156;28;19924;-72
2022/07/27 08:43:46;;;;;;;;;;;17.90;96.30;;;;;;5067483;28;20401;-72
2022/07/27 08:46:12;;;;;;;;;;;17.80;95.90;;;;;;5065622;28;19920;-76
2022/07/27 08:48:38;;;;;;;;;;;17.90;95.20;;;;;;5064996;28;19908;-72
2022/07/27 08:51:06;;;;;;;;;;;18.00;95.50;;;;;;5064618;28;20390;-72
2022/07/27 08:53:32;;;;;;;;;;;17.90;95.10;;;;;;5066972;28;19912;-72
2022/07/27 08:55:58;;;;;;;;;;;17.90;95.20;;;;;;5064667;28;19927;-72
2022/07/27 08:58:23;;;;;;;;;;;18.00;95.50;;;;;;5052551;28;19925;-71
2022/07/27 09:00:49;;;;;;;;;;;17.90;95.90;;;;;;5064482;28;19916;-71
2022/07/27 09:03:15;;;;;;;;;;;17.90;94.70;;;;;;5066773;28;19913;-71
2022/07/27 09:05:42;;;;;;;;;;;17.90;94.80;;;;;;5064454;28;19923;-72
2022/07/27 09:08:09;;;;;;;;;;;18.30;94.30;;;;;;5067189;28;19908;-70
2022/07/27 09:10:37;;;;;;;;;;;18.60;93.50;;;;;;5066751;28;19917;-72
2022/07/27 09:13:18;;;;;;;;;;;18.70;93.30;;;;;;5061954;28;19946;-71
2022/07/27 09:15:48;;;;;;;;;;;18.30;94.30;;;;;;5058704;28;20371;-70
2022/07/27 09:18:19;;;;;;;;;;;18.50;93.30;;;;;;5065885;28;19916;-71
2022/07/27 09:20:44;;;;;;;;;;;18.20;94.50;;;;;;5062071;28;19920;-68
2022/07/27 09:23:10;;;;;;;;;;;18.40;93.90;;;;;;5062238;28;20263;-70
2022/07/27 09:25:37;;;;;;;;;;;18.30;93.80;;;;;;5062920;28;19923;-72
2022/07/27 09:28:02;;;;;;;;;;;18.50;93.40;;;;;;5059128;28;19916;-71
2022/07/27 09:30:28;;;;;;;;;;;17.90;92.50;;;;;;5057029;28;20284;-73
2022/07/27 09:32:58;;;;;;;;;;;17.70;93.30;;;;;;5058839;28;20326;-71
2022/07/27 09:35:28;;;;;;;;;;;17.80;93.60;;;;;;5064804;28;19917;-72
2022/07/27 09:38:14;;;;;;;;;;;17.90;93.70;;;;;;5062175;28;19917;-72
2022/07/27 09:40:39;;;;;;;;;;;18.00;92.80;;;;;;5054417;28;19913;-73
2022/07/27 09:43:09;;;;;;;;;;;18.00;93.30;;;;;;5060333;28;19924;-73
2022/07/27 09:45:35;;;;;;;;;;;18.30;93.10;;;;;;5062906;28;20460;-73
2022/07/27 09:48:07;;;;;;;;;;;18.40;92.80;;;;;;5057774;28;19916;-73
2022/07/27 09:50:33;;;;;;;;;;;18.90;91.20;;;;;;5059302;28;19959;-72
2022/07/27 09:53:15;;;;;;;;;;;18.80;91.50;;;;;;5061869;28;19967;-72
2022/07/27 09:55:41;;;;;;;;;;;19.10;91.20;;;;;;5065789;28;20401;-80
2022/07/27 09:58:06;;;;;;;;;;;19.20;90.90;;;;;;5054930;28;19928;-72
2022/07/27 10:00:32;;;;;;;;;;;19.40;90.40;;;;;;5060346;28;20581;-73
2022/07/27 10:02:58;;;;;;;;;;;19.10;90.00;;;;;;5059714;28;20382;-75
2022/07/27 10:05:23;;;;;;;;;;;19.10;90.30;;;;;;5062285;28;19942;-78
2022/07/27 10:07:50;;;;;;;;;;;19.30;89.30;;;;;;5063043;28;20310;-74
2022/07/27 10:10:15;;;;;;;;;;;19.30;90.40;;;;;;5065567;28;19916;-77
2022/07/27 10:12:44;;;;;;;;;;;19.20;89.50;;;;;;5056442;28;20383;-80
2022/07/27 10:15:11;;;;;;;;;;;19.50;89.50;;;;;;5060072;28;19970;-79
2022/07/27 10:17:36;;;;;;;;;;;19.90;87.50;;;;;;5063691;28;20395;-79
2022/07/27 10:20:07;;;;;;;;;;;20.20;87.90;;;;;;5063913;28;19916;-81
2022/07/27 10:22:52;;;;;;;;;;;20.10;87.70;;;;;;5060965;28;19977;-78
2022/07/27 10:25:18;;;;;;;;;;;20.00;86.50;;;;;;5064962;28;20432;-78
2022/07/27 10:27:48;;;;;;;;;;;19.70;87.40;;;;;;5061144;28;19920;-72
2022/07/27 10:30:15;;;;;;;;;;;19.50;88.00;;;;;;5060992;28;19917;-71
2022/07/27 10:32:43;;;;;;;;;;;19.60;89.10;;;;;;5051753;28;19989;-74
2022/07/27 10:35:29;;;;;;;;;;;19.60;87.20;;;;;;5059813;28;19948;-74
2022/07/27 10:38:08;;;;;;;;;;;19.30;88.20;;;;;;5053339;28;19966;-76
2022/07/27 10:40:33;;;;;;;;;;;19.60;89.90;;;;;;5063954;28;20288;-74
2022/07/27 10:43:16;;;;;;;;;;;20.20;85.40;;;;;;5057394;28;19970;-74
2022/07/27 10:45:45;;;;;;;;;;;20.30;84.90;;;;;;5059923;28;19921;-74
2022/07/27 10:48:29;;;;;;;;;;;20.00;85.00;;;;;;5053178;28;20291;-75
2022/07/27 10:50:55;;;;;;;;;;;19.90;87.40;;;;;;5055536;28;19978;-75
2022/07/27 10:53:31;;;;;;;;;;;20.10;84.80;;;;;;5054885;28;20159;-75
2022/07/27 10:55:56;;;;;;;;;;;19.60;85.80;;;;;;5064945;28;19919;-75
2022/07/27 10:58:22;;;;;;;;;;;19.40;86.00;;;;;;5049897;28;20306;-73
2022/07/27 11:00:48;;;;;;;;;;;19.20;87.70;;;;;;5077030;28;20351;-76
2022/07/27 11:03:26;;;;;;;;;;;19.30;88.30;;;;;;5047681;28;19927;-71
2022/07/27 11:06:01;;;;;;;;;;;19.30;88.20;;;;;;5061722;28;19916;-73
2022/07/27 11:08:27;;;;;;;;;;;19.60;87.70;;;;;;5061577;28;19916;-76
2022/07/27 11:10:53;;;;;;;;;;;19.90;85.30;;;;;;5063207;28;20054;-76
2022/07/27 11:13:20;;;;;;;;;;;19.90;85.50;;;;;;5058998;28;20058;-74
2022/07/27 11:15:56;;;;;;;;;;;19.60;87.50;;;;;;5062537;28;20009;-73
2022/07/27 11:18:24;;;;;;;;;;;19.90;88.00;;;;;;5059728;28;19912;-74
2022/07/27 11:20:50;;;;;;;;;;;20.60;85.10;;;;;;5063051;28;19916;-76
2022/07/27 11:23:19;;;;;;;;;;;20.90;84.70;;;;;;5061411;28;20262;-76
2022/07/27 11:26:00;;;;;;;;;;;21.00;85.00;;;;;;5063463;28;19916;-76
2022/07/27 11:28:30;;;;;;;;;;;20.90;82.80;;;;;;5061790;28;20023;-76
2022/07/27 11:30:56;;;;;;;;;;;20.50;81.00;;;;;;5063384;28;19916;-74
2022/07/27 11:33:21;;;;;;;;;;;20.10;82.40;;;;;;5061440;28;20375;-74
2022/07/27 11:35:51;;;;;;;;;;;19.80;84.00;;;;;;5063834;28;19924;-73
2022/07/27 11:38:18;;;;;;;;;;;20.20;84.70;;;;;;5061832;28;19952;-75
2022/07/27 11:40:44;;;;;;;;;;;20.50;83.70;;;;;;5063273;28;19935;-75
2022/07/27 11:43:09;;;;;;;;;;;20.10;82.80;;;;;;5058739;28;19919;-76
2022/07/27 11:45:38;;;;;;;;;;;20.10;83.60;;;;;;5063656;28;19946;-69
2022/07/27 11:48:09;;;;;;;;;;;20.40;82.50;;;;;;5059573;28;20294;-75
2022/07/27 11:50:35;;;;;;;;;;;20.60;82.80;;;;;;5063481;28;20398;-76
2022/07/27 11:53:00;;;;;;;;;;;20.60;84.70;;;;;;5060731;28;19960;-71
2022/07/27 11:55:25;;;;;;;;;;;21.00;79.90;;;;;;5064346;28;19931;-73
2022/07/27 11:57:51;;;;;;;;;;;20.60;81.60;;;;;;5062890;28;19920;-74
2022/07/27 12:00:16;;;;;;;;;;;20.60;80.40;;;;;;5066979;28;20007;-76
2022/07/27 12:02:48;;;;;;;;;;;20.50;80.90;;;;;;5064750;28;19984;-74
2022/07/27 12:05:14;;;;;;;;;;;20.80;79.80;;;;;;5067065;28;19955;-72
2022/07/27 12:07:40;;;;;;;;;;;21.70;77.20;;;;;;5060559;28;19968;-74
2022/07/27 12:10:06;;;;;;;;;;;22.00;75.50;;;;;;5066353;28;19977;-74
2022/07/27 12:12:33;;;;;;;;;;;21.60;75.10;;;;;;5063856;28;20300;-74
2022/07/27 12:15:17;;;;;;;;;;;21.30;75.50;;;;;;5066232;28;20457;-75
2022/07/27 12:17:43;;;;;;;;;;;20.90;74.90;;;;;;5063402;28;19913;-74
2022/07/27 12:20:13;;;;;;;;;;;21.00;77.30;;;;;;5067230;28;19916;-74
2022/07/27 12:22:52;;;;;;;;;;;20.50;76.90;;;;;;5065074;28;19939;-73
2022/07/27 12:25:17;;;;;;;;;;;21.10;75.40;;;;;;5066082;28;19983;-74
2022/07/27 12:27:57;;;;;;;;;;;21.30;74.50;;;;;;5064429;28;20387;-75
2022/07/27 12:30:29;;;;;;;;;;;21.50;74.00;;;;;;5066107;28;19917;-76
2022/07/27 12:32:55;;;;;;;;;;;21.50;75.20;;;;;;5062380;28;20405;-75
2022/07/27 12:35:22;;;;;;;;;;;21.90;73.20;;;;;;5066319;28;19916;-76
2022/07/27 12:37:55;;;;;;;;;;;23.00;70.60;;;;;;5063362;28;20283;-73
2022/07/27 12:40:20;;;;;;;;;;;23.70;68.80;;;;;;5060168;28;20250;-81
2022/07/27 12:42:53;;;;;;;;;;;23.50;66.40;;;;;;5059836;28;19932;-87
2022/07/27 12:45:19;;;;;;;;;;;22.20;68.90;;;;;;5058922;28;19920;-82
2022/07/27 12:47:45;;;;;;;;;;;22.00;67.70;;;;;;5064536;28;19916;-73
2022/07/27 12:50:14;;;;;;;;;;;21.40;69.10;;;;;;5065460;28;20012;-75
2022/07/27 12:52:42;;;;;;;;;;;21.50;68.20;;;;;;5063651;28;19928;-72
2022/07/27 12:55:07;;;;;;;;;;;21.50;69.00;;;;;;5065882;28;19920;-74
2022/07/27 12:57:33;;;;;;;;;;;21.10;70.10;;;;;;5063650;28;20379;-75
2022/07/27 12:59:58;;;;;;;;;;;20.80;70.00;;;;;;5066009;28;20744;-73
2022/07/27 13:02:24;;;;;;;;;;;20.80;70.00;;;;;;5064122;28;19916;-73
2022/07/27 13:04:50;;;;;;;;;;;21.00;70.10;;;;;;5065856;28;19959;-74
2022/07/27 13:07:16;;;;;;;;;;;20.80;71.20;;;;;;5062702;28;19974;-74
2022/07/27 13:09:42;;;;;;;;;;;20.60;71.40;;;;;;5066171;28;19920;-73
2022/07/27 13:12:08;;;;;;;;;;;20.30;72.40;;;;;;5062198;28;19920;-73
2022/07/27 13:14:33;;;;;;;;;;;20.40;73.00;;;;;;5065047;28;20011;-75
2022/07/27 13:16:58;;;;;;;;;;;20.40;71.90;;;;;;5016678;28;19917;-73
2022/07/27 13:19:24;;;;;;;;;;;20.90;72.00;;;;;;5065565;28;19928;-74
2022/07/27 13:21:50;;;;;;;;;;;20.90;72.00;;;;;;5063404;28;19916;-73
2022/07/27 13:24:15;;;;;;;;;;;21.20;71.50;;;;;;5065229;28;19919;-75
2022/07/27 13:26:40;;;;;;;;;;;21.30;72.10;;;;;;5057176;28;19912;-75
2022/07/27 13:29:06;;;;;;;;;;;21.40;71.20;;;;;;5057124;28;20007;-76
2022/07/27 13:31:32;;;;;;;;;;;21.60;71.00;;;;;;5062929;28;19917;-73
2022/07/27 13:33:58;;;;;;;;;;;21.50;70.60;;;;;;5059226;28;20323;-69
2022/07/27 13:36:24;;;;;;;;;;;21.50;70.90;;;;;;5065416;28;19960;-74
2022/07/27 13:38:50;;;;;;;;;;;22.10;70.40;;;;;;5061790;28;19920;-75
2022/07/27 13:41:15;;;;;;;;;;;23.40;67.10;;;;;;5065212;28;19920;-74
2022/07/27 13:43:40;;;;;;;;;;;23.30;66.00;;;;;;5062323;28;19916;-73
2022/07/27 13:46:09;;;;;;;;;;;23.30;65.70;;;;;;5065190;28;19927;-73
2022/07/27 13:48:35;;;;;;;;;;;22.40;67.80;;;;;;5060014;28;19948;-73
2022/07/27 13:51:02;;;;;;;;;;;21.90;69.20;;;;;;5064818;28;20378;-72
2022/07/27 13:53:28;;;;;;;;;;;22.20;69.00;;;;;;5059593;28;19993;-73
2022/07/27 13:55:55;;;;;;;;;;;23.50;65.80;;;;;;5060366;28;20423;-74
2022/07/27 13:58:21;;;;;;;;;;;23.50;64.50;;;;;;5058898;28;19931;-73
2022/07/27 14:00:48;;;;;;;;;;;23.00;66.30;;;;;;5059512;28;20333;-74
2022/07/27 14:03:13;;;;;;;;;;;22.80;66.40;;;;;;5055744;28;19916;-74
2022/07/27 14:05:40;;;;;;;;;;;23.00;66.80;;;;;;5059683;28;21534;-73
2022/07/27 14:08:06;;;;;;;;;;;22.10;66.90;;;;;;5054852;28;19924;-73
2022/07/27 14:10:31;;;;;;;;;;;21.80;68.20;;;;;;5065039;28;19916;-73
2022/07/27 14:13:02;;;;;;;;;;;21.40;68.30;;;;;;5057827;28;19924;-74
2022/07/27 14:15:27;;;;;;;;;;;21.50;69.00;;;;;;5065209;28;19927;-75